sensor_id;sensor_type;location;lat;lon;timestamp;P1;durP1;ratioP1;P2;durP2;ratioP2
62523;SDS011;53689;56.878;60.672;2024-03-22T00:01:16;5.95;;;4.70;;
62523;SDS011;53689;56.878;60.672;2024-03-22T00:03:44;6.68;;;4.88;;
62523;SDS011;53689;56.878;60.672;2024-03-22T00:06:11;6.53;;;4.38;;
62523;SDS011;53689;56.878;60.672;2024-03-22T00:08:37;6.47;;;4.50;;
62523;SDS011;53689;56.878;60.672;2024-03-22T00:11:04;6.75;;;4.57;;
62523;SDS011;53689;56.878;60.672;2024-03-22T00:13:31;6.45;;;4.70;;
62523;SDS011;53689;56.878;60.672;2024-03-22T00:15:57;5.80;;;4.20;;
62523;SDS011;53689;56.878;60.672;2024-03-22T00:18:24;6.85;;;4.05;;
62523;SDS011;53689;56.878;60.672;2024-03-22T00:20:53;6.78;;;4.68;;
62523;SDS011;53689;56.878;60.672;2024-03-22T00:23:19;5.97;;;4.35;;
62523;SDS011;53689;56.878;60.672;2024-03-22T00:25:46;6.30;;;4.53;;
62523;SDS011;53689;56.878;60.672;2024-03-22T00:28:12;6.65;;;4.55;;
62523;SDS011;53689;56.878;60.672;2024-03-22T00:30:39;6.50;;;4.45;;
62523;SDS011;53689;56.878;60.672;2024-03-22T00:33:06;6.40;;;4.00;;
62523;SDS011;53689;56.878;60.672;2024-03-22T00:35:33;6.70;;;4.15;;
62523;SDS011;53689;56.878;60.672;2024-03-22T00:38:01;7.10;;;4.10;;
62523;SDS011;53689;56.878;60.672;2024-03-22T00:40:28;6.78;;;4.68;;
62523;SDS011;53689;56.878;60.672;2024-03-22T00:42:55;7.43;;;4.40;;
62523;SDS011;53689;56.878;60.672;2024-03-22T00:45:21;6.82;;;4.93;;
62523;SDS011;53689;56.878;60.672;2024-03-22T00:47:48;6.72;;;4.45;;
62523;SDS011;53689;56.878;60.672;2024-03-22T00:50:14;6.47;;;4.40;;
62523;SDS011;53689;56.878;60.672;2024-03-22T00:52:41;6.75;;;4.88;;
62523;SDS011;53689;56.878;60.672;2024-03-22T00:55:10;6.10;;;4.60;;
62523;SDS011;53689;56.878;60.672;2024-03-22T00:57:36;6.60;;;4.35;;
62523;SDS011;53689;56.878;60.672;2024-03-22T01:00:03;8.68;;;5.15;;
62523;SDS011;53689;56.878;60.672;2024-03-22T01:02:30;7.50;;;4.65;;
62523;SDS011;53689;56.878;60.672;2024-03-22T01:04:57;8.05;;;5.00;;
62523;SDS011;53689;56.878;60.672;2024-03-22T01:07:24;6.85;;;4.40;;
62523;SDS011;53689;56.878;60.672;2024-03-22T01:09:50;6.70;;;4.40;;
62523;SDS011;53689;56.878;60.672;2024-03-22T01:12:19;6.72;;;4.97;;
62523;SDS011;53689;56.878;60.672;2024-03-22T01:14:45;6.32;;;4.47;;
62523;SDS011;53689;56.878;60.672;2024-03-22T01:17:12;7.15;;;4.53;;
62523;SDS011;53689;56.878;60.672;2024-03-22T01:19:39;7.10;;;4.95;;
62523;SDS011;53689;56.878;60.672;2024-03-22T01:22:05;6.93;;;4.45;;
62523;SDS011;53689;56.878;60.672;2024-03-22T01:24:32;7.88;;;4.85;;
62523;SDS011;53689;56.878;60.672;2024-03-22T01:26:59;7.10;;;4.43;;
62523;SDS011;53689;56.878;60.672;2024-03-22T01:29:27;7.05;;;4.65;;
62523;SDS011;53689;56.878;60.672;2024-03-22T01:31:54;6.80;;;4.47;;
62523;SDS011;53689;56.878;60.672;2024-03-22T01:34:21;6.60;;;4.78;;
62523;SDS011;53689;56.878;60.672;2024-03-22T01:36:47;6.35;;;4.43;;
62523;SDS011;53689;56.878;60.672;2024-03-22T01:39:14;6.70;;;4.80;;
62523;SDS011;53689;56.878;60.672;2024-03-22T01:41:41;7.93;;;5.07;;
62523;SDS011;53689;56.878;60.672;2024-03-22T01:44:08;8.02;;;4.97;;
62523;SDS011;53689;56.878;60.672;2024-03-22T01:46:36;9.73;;;5.60;;
62523;SDS011;53689;56.878;60.672;2024-03-22T01:49:02;6.88;;;4.95;;
62523;SDS011;53689;56.878;60.672;2024-03-22T01:51:29;6.45;;;4.53;;
62523;SDS011;53689;56.878;60.672;2024-03-22T01:53:56;6.47;;;4.50;;
62523;SDS011;53689;56.878;60.672;2024-03-22T01:56:26;6.93;;;4.90;;
62523;SDS011;53689;56.878;60.672;2024-03-22T01:58:52;6.75;;;4.25;;
62523;SDS011;53689;56.878;60.672;2024-03-22T02:01:20;7.35;;;5.00;;
62523;SDS011;53689;56.878;60.672;2024-03-22T02:03:48;6.95;;;4.28;;
62523;SDS011;53689;56.878;60.672;2024-03-22T02:06:15;7.80;;;4.50;;
62523;SDS011;53689;56.878;60.672;2024-03-22T02:08:41;7.10;;;4.28;;
62523;SDS011;53689;56.878;60.672;2024-03-22T02:11:09;6.90;;;4.13;;
62523;SDS011;53689;56.878;60.672;2024-03-22T02:13:35;7.90;;;4.45;;
62523;SDS011;53689;56.878;60.672;2024-03-22T02:16:02;6.97;;;4.70;;
62523;SDS011;53689;56.878;60.672;2024-03-22T02:18:29;6.78;;;4.60;;
62523;SDS011;53689;56.878;60.672;2024-03-22T02:20:57;6.82;;;4.65;;
62523;SDS011;53689;56.878;60.672;2024-03-22T02:23:28;8.77;;;5.47;;
62523;SDS011;53689;56.878;60.672;2024-03-22T02:25:58;7.85;;;5.57;;
62523;SDS011;53689;56.878;60.672;2024-03-22T02:28:24;6.43;;;5.10;;
62523;SDS011;53689;56.878;60.672;2024-03-22T02:30:51;8.55;;;5.30;;
62523;SDS011;53689;56.878;60.672;2024-03-22T02:33:17;8.13;;;4.72;;
62523;SDS011;53689;56.878;60.672;2024-03-22T02:35:45;9.30;;;5.78;;
62523;SDS011;53689;56.878;60.672;2024-03-22T02:38:12;8.63;;;5.70;;
62523;SDS011;53689;56.878;60.672;2024-03-22T02:40:42;8.25;;;5.18;;
62523;SDS011;53689;56.878;60.672;2024-03-22T02:43:09;7.97;;;5.82;;
62523;SDS011;53689;56.878;60.672;2024-03-22T02:45:36;8.25;;;5.47;;
62523;SDS011;53689;56.878;60.672;2024-03-22T02:48:03;8.10;;;5.10;;
62523;SDS011;53689;56.878;60.672;2024-03-22T02:50:32;8.55;;;6.07;;
62523;SDS011;53689;56.878;60.672;2024-03-22T02:52:59;8.30;;;6.05;;
62523;SDS011;53689;56.878;60.672;2024-03-22T02:55:25;7.85;;;5.50;;
62523;SDS011;53689;56.878;60.672;2024-03-22T02:57:54;10.15;;;6.75;;
62523;SDS011;53689;56.878;60.672;2024-03-22T03:00:21;10.18;;;6.22;;
62523;SDS011;53689;56.878;60.672;2024-03-22T03:02:48;11.52;;;6.88;;
62523;SDS011;53689;56.878;60.672;2024-03-22T03:05:15;9.80;;;5.82;;
62523;SDS011;53689;56.878;60.672;2024-03-22T03:07:41;11.35;;;7.85;;
62523;SDS011;53689;56.878;60.672;2024-03-22T03:10:08;12.88;;;7.88;;
62523;SDS011;53689;56.878;60.672;2024-03-22T03:12:35;14.43;;;7.85;;
62523;SDS011;53689;56.878;60.672;2024-03-22T03:15:03;11.10;;;6.22;;
62523;SDS011;53689;56.878;60.672;2024-03-22T03:17:30;15.93;;;9.20;;
62523;SDS011;53689;56.878;60.672;2024-03-22T03:19:57;11.45;;;7.15;;
62523;SDS011;53689;56.878;60.672;2024-03-22T03:22:23;13.35;;;7.60;;
62523;SDS011;53689;56.878;60.672;2024-03-22T03:24:50;10.20;;;6.93;;
62523;SDS011;53689;56.878;60.672;2024-03-22T03:27:16;10.07;;;6.75;;
62523;SDS011;53689;56.878;60.672;2024-03-22T03:29:43;13.45;;;7.65;;
62523;SDS011;53689;56.878;60.672;2024-03-22T03:32:11;11.02;;;6.85;;
62523;SDS011;53689;56.878;60.672;2024-03-22T03:34:38;14.23;;;8.57;;
62523;SDS011;53689;56.878;60.672;2024-03-22T03:37:04;13.07;;;8.00;;
62523;SDS011;53689;56.878;60.672;2024-03-22T03:39:31;14.20;;;8.43;;
62523;SDS011;53689;56.878;60.672;2024-03-22T03:41:58;14.35;;;7.75;;
62523;SDS011;53689;56.878;60.672;2024-03-22T03:44:25;14.40;;;9.18;;
62523;SDS011;53689;56.878;60.672;2024-03-22T03:46:52;15.77;;;8.60;;
62523;SDS011;53689;56.878;60.672;2024-03-22T03:49:20;12.27;;;7.05;;
62523;SDS011;53689;56.878;60.672;2024-03-22T03:51:46;11.70;;;7.15;;
62523;SDS011;53689;56.878;60.672;2024-03-22T03:54:13;11.32;;;7.03;;
62523;SDS011;53689;56.878;60.672;2024-03-22T03:56:40;17.50;;;9.32;;
62523;SDS011;53689;56.878;60.672;2024-03-22T03:59:06;11.93;;;7.63;;
62523;SDS011;53689;56.878;60.672;2024-03-22T04:01:33;16.98;;;8.73;;
62523;SDS011;53689;56.878;60.672;2024-03-22T04:04:00;17.58;;;9.82;;
62523;SDS011;53689;56.878;60.672;2024-03-22T04:06:27;15.32;;;9.18;;
62523;SDS011;53689;56.878;60.672;2024-03-22T04:08:54;17.08;;;9.82;;
62523;SDS011;53689;56.878;60.672;2024-03-22T04:11:21;13.73;;;9.00;;
62523;SDS011;53689;56.878;60.672;2024-03-22T04:13:47;20.63;;;11.02;;
62523;SDS011;53689;56.878;60.672;2024-03-22T04:16:14;24.10;;;11.80;;
62523;SDS011;53689;56.878;60.672;2024-03-22T04:18:41;17.90;;;10.88;;
62523;SDS011;53689;56.878;60.672;2024-03-22T04:21:07;14.27;;;8.77;;
62523;SDS011;53689;56.878;60.672;2024-03-22T04:23:35;12.70;;;8.57;;
62523;SDS011;53689;56.878;60.672;2024-03-22T04:26:02;17.77;;;9.57;;
62523;SDS011;53689;56.878;60.672;2024-03-22T04:28:29;23.10;;;12.82;;
62523;SDS011;53689;56.878;60.672;2024-03-22T04:30:58;19.20;;;10.43;;
62523;SDS011;53689;56.878;60.672;2024-03-22T04:33:25;20.42;;;12.57;;
62523;SDS011;53689;56.878;60.672;2024-03-22T04:35:52;22.88;;;14.13;;
62523;SDS011;53689;56.878;60.672;2024-03-22T04:38:19;26.38;;;14.70;;
62523;SDS011;53689;56.878;60.672;2024-03-22T04:40:48;26.77;;;14.30;;
62523;SDS011;53689;56.878;60.672;2024-03-22T04:43:14;24.48;;;15.02;;
62523;SDS011;53689;56.878;60.672;2024-03-22T04:45:42;25.88;;;15.60;;
62523;SDS011;53689;56.878;60.672;2024-03-22T04:48:08;26.65;;;15.40;;
62523;SDS011;53689;56.878;60.672;2024-03-22T04:50:35;27.85;;;14.85;;
62523;SDS011;53689;56.878;60.672;2024-03-22T04:53:02;28.80;;;15.55;;
62523;SDS011;53689;56.878;60.672;2024-03-22T04:55:29;24.77;;;15.20;;
62523;SDS011;53689;56.878;60.672;2024-03-22T04:57:57;24.70;;;14.73;;
62523;SDS011;53689;56.878;60.672;2024-03-22T05:00:23;27.30;;;15.70;;
62523;SDS011;53689;56.878;60.672;2024-03-22T05:02:50;16.55;;;10.23;;
62523;SDS011;53689;56.878;60.672;2024-03-22T05:05:17;16.58;;;9.43;;
62523;SDS011;53689;56.878;60.672;2024-03-22T05:07:43;18.67;;;11.07;;
62523;SDS011;53689;56.878;60.672;2024-03-22T05:10:11;18.67;;;10.45;;
62523;SDS011;53689;56.878;60.672;2024-03-22T05:12:38;20.10;;;12.10;;
62523;SDS011;53689;56.878;60.672;2024-03-22T05:15:07;19.88;;;11.18;;
62523;SDS011;53689;56.878;60.672;2024-03-22T05:17:33;21.15;;;12.85;;
62523;SDS011;53689;56.878;60.672;2024-03-22T05:20:00;26.10;;;14.88;;
62523;SDS011;53689;56.878;60.672;2024-03-22T05:22:27;22.17;;;14.88;;
62523;SDS011;53689;56.878;60.672;2024-03-22T05:24:54;31.15;;;16.05;;
62523;SDS011;53689;56.878;60.672;2024-03-22T05:27:20;25.38;;;15.57;;
62523;SDS011;53689;56.878;60.672;2024-03-22T05:29:47;22.15;;;14.88;;
62523;SDS011;53689;56.878;60.672;2024-03-22T05:32:15;24.25;;;14.80;;
62523;SDS011;53689;56.878;60.672;2024-03-22T05:34:42;25.73;;;15.10;;
62523;SDS011;53689;56.878;60.672;2024-03-22T05:37:08;24.85;;;14.55;;
62523;SDS011;53689;56.878;60.672;2024-03-22T05:39:35;41.40;;;25.55;;
62523;SDS011;53689;56.878;60.672;2024-03-22T05:42:02;28.73;;;15.88;;
62523;SDS011;53689;56.878;60.672;2024-03-22T05:44:28;26.77;;;16.52;;
62523;SDS011;53689;56.878;60.672;2024-03-22T05:46:55;27.23;;;15.75;;
62523;SDS011;53689;56.878;60.672;2024-03-22T05:49:23;26.30;;;13.88;;
62523;SDS011;53689;56.878;60.672;2024-03-22T05:51:50;22.33;;;12.45;;
62523;SDS011;53689;56.878;60.672;2024-03-22T05:54:16;19.88;;;11.13;;
62523;SDS011;53689;56.878;60.672;2024-03-22T05:56:43;20.55;;;11.57;;
62523;SDS011;53689;56.878;60.672;2024-03-22T05:59:10;17.63;;;10.75;;
62523;SDS011;53689;56.878;60.672;2024-03-22T06:01:37;23.25;;;10.43;;
62523;SDS011;53689;56.878;60.672;2024-03-22T06:04:04;21.33;;;10.18;;
62523;SDS011;53689;56.878;60.672;2024-03-22T06:06:33;19.05;;;10.68;;
62523;SDS011;53689;56.878;60.672;2024-03-22T06:09:00;16.13;;;9.88;;
62523;SDS011;53689;56.878;60.672;2024-03-22T06:11:28;19.73;;;9.85;;
62523;SDS011;53689;56.878;60.672;2024-03-22T06:13:54;23.38;;;11.88;;
62523;SDS011;53689;56.878;60.672;2024-03-22T06:16:22;20.45;;;10.18;;
62523;SDS011;53689;56.878;60.672;2024-03-22T06:18:48;22.15;;;10.50;;
62523;SDS011;53689;56.878;60.672;2024-03-22T06:21:15;21.92;;;10.93;;
62523;SDS011;53689;56.878;60.672;2024-03-22T06:23:43;24.02;;;10.88;;
62523;SDS011;53689;56.878;60.672;2024-03-22T06:26:10;21.65;;;10.55;;
62523;SDS011;53689;56.878;60.672;2024-03-22T06:28:37;18.92;;;9.40;;
62523;SDS011;53689;56.878;60.672;2024-03-22T06:31:03;18.10;;;8.55;;
62523;SDS011;53689;56.878;60.672;2024-03-22T06:33:30;21.35;;;9.65;;
62523;SDS011;53689;56.878;60.672;2024-03-22T06:35:57;19.48;;;9.70;;
62523;SDS011;53689;56.878;60.672;2024-03-22T06:38:23;15.68;;;7.68;;
62523;SDS011;53689;56.878;60.672;2024-03-22T06:40:52;17.52;;;10.05;;
62523;SDS011;53689;56.878;60.672;2024-03-22T06:43:18;14.43;;;8.13;;
62523;SDS011;53689;56.878;60.672;2024-03-22T06:45:45;21.38;;;11.07;;
62523;SDS011;53689;56.878;60.672;2024-03-22T06:48:12;22.42;;;10.55;;
62523;SDS011;53689;56.878;60.672;2024-03-22T06:50:39;21.65;;;12.57;;
62523;SDS011;53689;56.878;60.672;2024-03-22T06:53:06;19.45;;;10.68;;
62523;SDS011;53689;56.878;60.672;2024-03-22T06:55:32;22.17;;;9.73;;
62523;SDS011;53689;56.878;60.672;2024-03-22T06:58:00;27.58;;;11.85;;
62523;SDS011;53689;56.878;60.672;2024-03-22T07:00:27;17.95;;;10.43;;
62523;SDS011;53689;56.878;60.672;2024-03-22T07:02:54;20.13;;;10.18;;
62523;SDS011;53689;56.878;60.672;2024-03-22T07:05:21;21.17;;;9.68;;
62523;SDS011;53689;56.878;60.672;2024-03-22T07:08:08;23.80;;;12.02;;
62523;SDS011;53689;56.878;60.672;2024-03-22T07:10:34;17.92;;;8.77;;
62523;SDS011;53689;56.878;60.672;2024-03-22T07:13:06;13.45;;;8.55;;
62523;SDS011;53689;56.878;60.672;2024-03-22T07:15:33;16.73;;;9.30;;
62523;SDS011;53689;56.878;60.672;2024-03-22T07:17:59;21.10;;;9.68;;
62523;SDS011;53689;56.878;60.672;2024-03-22T07:20:26;16.67;;;9.77;;
62523;SDS011;53689;56.878;60.672;2024-03-22T07:22:54;17.27;;;7.95;;
62523;SDS011;53689;56.878;60.672;2024-03-22T07:25:22;14.75;;;8.45;;
62523;SDS011;53689;56.878;60.672;2024-03-22T07:27:48;16.95;;;7.80;;
62523;SDS011;53689;56.878;60.672;2024-03-22T07:30:16;30.50;;;10.70;;
62523;SDS011;53689;56.878;60.672;2024-03-22T07:32:43;22.95;;;10.55;;
62523;SDS011;53689;56.878;60.672;2024-03-22T07:35:12;18.40;;;9.33;;
62523;SDS011;53689;56.878;60.672;2024-03-22T07:37:38;21.48;;;9.95;;
62523;SDS011;53689;56.878;60.672;2024-03-22T07:40:05;25.80;;;11.65;;
62523;SDS011;53689;56.878;60.672;2024-03-22T07:42:33;14.55;;;9.05;;
62523;SDS011;53689;56.878;60.672;2024-03-22T07:45:00;17.23;;;8.80;;
62523;SDS011;53689;56.878;60.672;2024-03-22T07:47:28;19.08;;;9.45;;
62523;SDS011;53689;56.878;60.672;2024-03-22T07:49:54;25.00;;;11.88;;
62523;SDS011;53689;56.878;60.672;2024-03-22T07:52:21;19.50;;;9.07;;
62523;SDS011;53689;56.878;60.672;2024-03-22T07:54:48;20.25;;;10.75;;
62523;SDS011;53689;56.878;60.672;2024-03-22T07:57:14;15.52;;;8.40;;
62523;SDS011;53689;56.878;60.672;2024-03-22T07:59:42;17.60;;;8.77;;
62523;SDS011;53689;56.878;60.672;2024-03-22T08:02:08;21.20;;;9.57;;
62523;SDS011;53689;56.878;60.672;2024-03-22T08:04:37;22.75;;;10.88;;
62523;SDS011;53689;56.878;60.672;2024-03-22T08:07:04;16.02;;;8.65;;
62523;SDS011;53689;56.878;60.672;2024-03-22T08:09:30;19.65;;;11.35;;
62523;SDS011;53689;56.878;60.672;2024-03-22T08:11:57;25.05;;;11.73;;
62523;SDS011;53689;56.878;60.672;2024-03-22T08:14:24;20.48;;;9.88;;
62523;SDS011;53689;56.878;60.672;2024-03-22T08:16:50;16.73;;;8.15;;
62523;SDS011;53689;56.878;60.672;2024-03-22T08:19:17;18.20;;;8.15;;
62523;SDS011;53689;56.878;60.672;2024-03-22T08:21:45;14.88;;;7.35;;
62523;SDS011;53689;56.878;60.672;2024-03-22T08:24:11;16.88;;;8.18;;
62523;SDS011;53689;56.878;60.672;2024-03-22T08:26:38;22.33;;;10.10;;
62523;SDS011;53689;56.878;60.672;2024-03-22T08:29:05;15.25;;;8.18;;
62523;SDS011;53689;56.878;60.672;2024-03-22T08:31:31;16.80;;;8.45;;
62523;SDS011;53689;56.878;60.672;2024-03-22T08:33:58;16.25;;;8.57;;
62523;SDS011;53689;56.878;60.672;2024-03-22T08:36:25;19.15;;;8.30;;
62523;SDS011;53689;56.878;60.672;2024-03-22T08:38:53;18.65;;;8.52;;
62523;SDS011;53689;56.878;60.672;2024-03-22T08:41:19;12.85;;;7.72;;
62523;SDS011;53689;56.878;60.672;2024-03-22T08:43:46;17.88;;;8.45;;
62523;SDS011;53689;56.878;60.672;2024-03-22T08:46:13;17.92;;;8.95;;
62523;SDS011;53689;56.878;60.672;2024-03-22T08:48:39;17.88;;;7.75;;
62523;SDS011;53689;56.878;60.672;2024-03-22T08:51:06;15.07;;;7.85;;
62523;SDS011;53689;56.878;60.672;2024-03-22T08:53:35;16.25;;;7.65;;
62523;SDS011;53689;56.878;60.672;2024-03-22T08:56:04;15.35;;;7.50;;
62523;SDS011;53689;56.878;60.672;2024-03-22T08:58:31;15.68;;;8.45;;
62523;SDS011;53689;56.878;60.672;2024-03-22T09:00:57;17.08;;;7.68;;
62523;SDS011;53689;56.878;60.672;2024-03-22T09:03:24;18.65;;;9.75;;
62523;SDS011;53689;56.878;60.672;2024-03-22T09:05:52;13.20;;;7.15;;
62523;SDS011;53689;56.878;60.672;2024-03-22T09:08:19;17.70;;;7.30;;
62523;SDS011;53689;56.878;60.672;2024-03-22T09:10:46;13.85;;;7.78;;
62523;SDS011;53689;56.878;60.672;2024-03-22T09:13:14;19.23;;;9.68;;
62523;SDS011;53689;56.878;60.672;2024-03-22T09:15:42;23.48;;;10.13;;
62523;SDS011;53689;56.878;60.672;2024-03-22T09:18:09;18.83;;;9.02;;
62523;SDS011;53689;56.878;60.672;2024-03-22T09:20:35;20.33;;;10.23;;
62523;SDS011;53689;56.878;60.672;2024-03-22T09:23:02;14.30;;;7.10;;
62523;SDS011;53689;56.878;60.672;2024-03-22T09:25:29;18.13;;;8.25;;
62523;SDS011;53689;56.878;60.672;2024-03-22T09:27:55;14.30;;;7.82;;
62523;SDS011;53689;56.878;60.672;2024-03-22T09:30:24;15.43;;;7.97;;
62523;SDS011;53689;56.878;60.672;2024-03-22T09:32:50;16.80;;;8.75;;
62523;SDS011;53689;56.878;60.672;2024-03-22T09:35:17;19.70;;;8.20;;
62523;SDS011;53689;56.878;60.672;2024-03-22T09:37:44;16.48;;;7.88;;
62523;SDS011;53689;56.878;60.672;2024-03-22T09:40:11;15.98;;;7.70;;
62523;SDS011;53689;56.878;60.672;2024-03-22T09:42:38;16.90;;;9.10;;
62523;SDS011;53689;56.878;60.672;2024-03-22T09:45:07;17.00;;;8.57;;
62523;SDS011;53689;56.878;60.672;2024-03-22T09:47:36;18.60;;;8.27;;
62523;SDS011;53689;56.878;60.672;2024-03-22T09:50:04;15.65;;;8.73;;
62523;SDS011;53689;56.878;60.672;2024-03-22T09:52:33;18.77;;;8.95;;
62523;SDS011;53689;56.878;60.672;2024-03-22T09:55:01;18.15;;;9.13;;
62523;SDS011;53689;56.878;60.672;2024-03-22T09:57:27;18.75;;;8.60;;
62523;SDS011;53689;56.878;60.672;2024-03-22T09:59:55;20.25;;;9.32;;
62523;SDS011;53689;56.878;60.672;2024-03-22T10:02:22;18.02;;;9.82;;
62523;SDS011;53689;56.878;60.672;2024-03-22T10:04:51;23.60;;;10.40;;
62523;SDS011;53689;56.878;60.672;2024-03-22T10:07:19;17.20;;;9.27;;
62523;SDS011;53689;56.878;60.672;2024-03-22T10:09:46;17.90;;;10.10;;
62523;SDS011;53689;56.878;60.672;2024-03-22T10:12:12;21.98;;;10.80;;
62523;SDS011;53689;56.878;60.672;2024-03-22T10:14:39;20.98;;;10.65;;
62523;SDS011;53689;56.878;60.672;2024-03-22T10:17:09;23.75;;;11.52;;
62523;SDS011;53689;56.878;60.672;2024-03-22T10:19:36;21.00;;;11.45;;
62523;SDS011;53689;56.878;60.672;2024-03-22T10:22:04;16.02;;;8.15;;
62523;SDS011;53689;56.878;60.672;2024-03-22T10:24:31;20.48;;;9.27;;
62523;SDS011;53689;56.878;60.672;2024-03-22T10:26:57;19.90;;;9.68;;
62523;SDS011;53689;56.878;60.672;2024-03-22T10:29:24;17.00;;;8.00;;
62523;SDS011;53689;56.878;60.672;2024-03-22T10:31:51;20.30;;;9.07;;
62523;SDS011;53689;56.878;60.672;2024-03-22T10:34:20;15.43;;;8.53;;
62523;SDS011;53689;56.878;60.672;2024-03-22T10:36:47;16.25;;;8.55;;
62523;SDS011;53689;56.878;60.672;2024-03-22T10:39:17;22.60;;;10.27;;
62523;SDS011;53689;56.878;60.672;2024-03-22T10:41:45;25.05;;;10.02;;
62523;SDS011;53689;56.878;60.672;2024-03-22T10:44:12;21.13;;;9.38;;
62523;SDS011;53689;56.878;60.672;2024-03-22T10:46:41;20.02;;;11.60;;
62523;SDS011;53689;56.878;60.672;2024-03-22T10:49:10;21.63;;;11.68;;
62523;SDS011;53689;56.878;60.672;2024-03-22T10:51:41;24.67;;;10.88;;
62523;SDS011;53689;56.878;60.672;2024-03-22T10:54:10;21.25;;;9.48;;
62523;SDS011;53689;56.878;60.672;2024-03-22T10:56:40;21.20;;;11.27;;
62523;SDS011;53689;56.878;60.672;2024-03-22T10:59:07;22.05;;;11.70;;
62523;SDS011;53689;56.878;60.672;2024-03-22T11:01:35;28.25;;;12.30;;
62523;SDS011;53689;56.878;60.672;2024-03-22T11:04:04;19.90;;;11.32;;
62523;SDS011;53689;56.878;60.672;2024-03-22T11:06:31;21.77;;;12.02;;
62523;SDS011;53689;56.878;60.672;2024-03-22T11:08:59;26.27;;;13.18;;
62523;SDS011;53689;56.878;60.672;2024-03-22T11:11:28;25.10;;;11.48;;
62523;SDS011;53689;56.878;60.672;2024-03-22T11:13:56;20.17;;;10.20;;
62523;SDS011;53689;56.878;60.672;2024-03-22T11:16:23;19.95;;;10.27;;
62523;SDS011;53689;56.878;60.672;2024-03-22T11:18:51;24.50;;;10.63;;
62523;SDS011;53689;56.878;60.672;2024-03-22T11:21:17;19.92;;;10.75;;
62523;SDS011;53689;56.878;60.672;2024-03-22T11:23:47;22.40;;;11.88;;
62523;SDS011;53689;56.878;60.672;2024-03-22T11:26:14;20.73;;;10.77;;
62523;SDS011;53689;56.878;60.672;2024-03-22T11:28:41;22.85;;;11.07;;
62523;SDS011;53689;56.878;60.672;2024-03-22T11:31:09;24.15;;;11.57;;
62523;SDS011;53689;56.878;60.672;2024-03-22T11:33:36;28.08;;;12.95;;
62523;SDS011;53689;56.878;60.672;2024-03-22T11:36:03;20.90;;;12.07;;
62523;SDS011;53689;56.878;60.672;2024-03-22T11:38:30;24.35;;;12.85;;
62523;SDS011;53689;56.878;60.672;2024-03-22T11:40:58;25.23;;;12.52;;
62523;SDS011;53689;56.878;60.672;2024-03-22T11:43:27;26.95;;;13.52;;
62523;SDS011;53689;56.878;60.672;2024-03-22T11:45:55;24.25;;;12.68;;
62523;SDS011;53689;56.878;60.672;2024-03-22T11:48:23;18.85;;;9.95;;
62523;SDS011;53689;56.878;60.672;2024-03-22T11:50:50;18.33;;;9.32;;
62523;SDS011;53689;56.878;60.672;2024-03-22T11:53:16;22.55;;;11.02;;
62523;SDS011;53689;56.878;60.672;2024-03-22T11:55:43;25.08;;;12.43;;
62523;SDS011;53689;56.878;60.672;2024-03-22T11:58:09;31.08;;;14.15;;
62523;SDS011;53689;56.878;60.672;2024-03-22T12:00:36;21.08;;;10.60;;
62523;SDS011;53689;56.878;60.672;2024-03-22T12:03:04;25.20;;;12.77;;
62523;SDS011;53689;56.878;60.672;2024-03-22T12:05:32;25.80;;;13.23;;
62523;SDS011;53689;56.878;60.672;2024-03-22T12:07:59;22.95;;;13.02;;
62523;SDS011;53689;56.878;60.672;2024-03-22T12:10:27;29.52;;;14.75;;
62523;SDS011;53689;56.878;60.672;2024-03-22T12:12:54;24.23;;;14.98;;
62523;SDS011;53689;56.878;60.672;2024-03-22T12:15:20;25.50;;;14.48;;
62523;SDS011;53689;56.878;60.672;2024-03-22T12:17:47;24.67;;;13.85;;
62523;SDS011;53689;56.878;60.672;2024-03-22T12:20:16;25.10;;;13.25;;
62523;SDS011;53689;56.878;60.672;2024-03-22T12:22:44;27.48;;;15.57;;
62523;SDS011;53689;56.878;60.672;2024-03-22T12:25:10;27.38;;;14.50;;
62523;SDS011;53689;56.878;60.672;2024-03-22T12:27:37;29.48;;;13.48;;
62523;SDS011;53689;56.878;60.672;2024-03-22T12:30:04;23.83;;;14.27;;
62523;SDS011;53689;56.878;60.672;2024-03-22T12:32:32;25.20;;;13.65;;
62523;SDS011;53689;56.878;60.672;2024-03-22T12:34:59;23.58;;;13.30;;
62523;SDS011;53689;56.878;60.672;2024-03-22T12:37:25;23.80;;;12.23;;
62523;SDS011;53689;56.878;60.672;2024-03-22T12:39:53;25.08;;;14.50;;
62523;SDS011;53689;56.878;60.672;2024-03-22T12:42:21;32.90;;;14.88;;
62523;SDS011;53689;56.878;60.672;2024-03-22T12:44:48;24.90;;;14.27;;
62523;SDS011;53689;56.878;60.672;2024-03-22T12:47:14;20.38;;;12.98;;
62523;SDS011;53689;56.878;60.672;2024-03-22T12:49:41;22.55;;;12.20;;
62523;SDS011;53689;56.878;60.672;2024-03-22T12:52:07;22.42;;;12.23;;
62523;SDS011;53689;56.878;60.672;2024-03-22T12:54:34;25.63;;;12.93;;
62523;SDS011;53689;56.878;60.672;2024-03-22T12:57:02;25.67;;;12.23;;
62523;SDS011;53689;56.878;60.672;2024-03-22T12:59:29;20.17;;;10.88;;
62523;SDS011;53689;56.878;60.672;2024-03-22T13:01:56;21.25;;;11.68;;
62523;SDS011;53689;56.878;60.672;2024-03-22T13:04:22;20.55;;;11.10;;
62523;SDS011;53689;56.878;60.672;2024-03-22T13:06:49;22.23;;;10.52;;
62523;SDS011;53689;56.878;60.672;2024-03-22T13:09:16;21.67;;;10.00;;
62523;SDS011;53689;56.878;60.672;2024-03-22T13:11:43;19.45;;;10.05;;
62523;SDS011;53689;56.878;60.672;2024-03-22T13:14:11;18.30;;;9.55;;
62523;SDS011;53689;56.878;60.672;2024-03-22T13:16:38;15.55;;;9.43;;
62523;SDS011;53689;56.878;60.672;2024-03-22T13:19:04;15.80;;;8.27;;
62523;SDS011;53689;56.878;60.672;2024-03-22T13:21:31;18.83;;;8.50;;
62523;SDS011;53689;56.878;60.672;2024-03-22T13:23:58;16.02;;;8.38;;
62523;SDS011;53689;56.878;60.672;2024-03-22T13:26:24;16.80;;;8.35;;
62523;SDS011;53689;56.878;60.672;2024-03-22T13:28:51;18.27;;;8.88;;
62523;SDS011;53689;56.878;60.672;2024-03-22T13:31:19;19.77;;;9.30;;
62523;SDS011;53689;56.878;60.672;2024-03-22T13:33:46;17.25;;;8.73;;
62523;SDS011;53689;56.878;60.672;2024-03-22T13:36:13;17.88;;;8.40;;
62523;SDS011;53689;56.878;60.672;2024-03-22T13:38:39;21.65;;;9.15;;
62523;SDS011;53689;56.878;60.672;2024-03-22T13:41:06;20.58;;;8.95;;
62523;SDS011;53689;56.878;60.672;2024-03-22T13:43:32;20.50;;;9.40;;
62523;SDS011;53689;56.878;60.672;2024-03-22T13:46:00;19.08;;;8.07;;
62523;SDS011;53689;56.878;60.672;2024-03-22T13:48:28;23.95;;;8.82;;
62523;SDS011;53689;56.878;60.672;2024-03-22T13:50:55;19.20;;;9.43;;
62523;SDS011;53689;56.878;60.672;2024-03-22T13:53:21;17.75;;;7.50;;
62523;SDS011;53689;56.878;60.672;2024-03-22T13:55:48;15.38;;;7.90;;
62523;SDS011;53689;56.878;60.672;2024-03-22T13:58:15;16.00;;;8.20;;
62523;SDS011;53689;56.878;60.672;2024-03-22T14:00:42;16.45;;;8.85;;
62523;SDS011;53689;56.878;60.672;2024-03-22T14:03:08;16.02;;;8.63;;
62523;SDS011;53689;56.878;60.672;2024-03-22T14:05:36;16.08;;;9.05;;
62523;SDS011;53689;56.878;60.672;2024-03-22T14:08:03;16.73;;;7.68;;
62523;SDS011;53689;56.878;60.672;2024-03-22T14:10:30;15.32;;;8.55;;
62523;SDS011;53689;56.878;60.672;2024-03-22T14:12:57;19.95;;;9.02;;
62523;SDS011;53689;56.878;60.672;2024-03-22T14:15:24;18.08;;;8.43;;
62523;SDS011;53689;56.878;60.672;2024-03-22T14:17:50;17.20;;;8.63;;